Hebron, Illinois
Current Conditions -  °F | °C
As of 12:35 AM on Monday 26 Jan 2015 (Local Time) from KBUU Reporting Station
Clear Clear  
Wind Chill:   Ceiling: Unl
Heat Index: 14°   Visibility: 10mi
Dew Point: 10°   Wind: 8mph
Humidity: 84%   Direction: 340°NNW
Pressure: 30"   Gusts: NA
Location:  42.47°N, 88.43°W
Report Text: KBUU 260635Z AUTO 34007KT 10SM CLR M10/M12 A3000 RMK AO2 T11001122
Loading
Personal Weather Stations






























Interactive Weather Map New forecast layout! Learn more

10-Day Weather Forecast

Advertisements
Track Severe Weather on mobile